Terminal Aerodrome Forecast
Issued by NWS

Home | Current Version | Previous Version | Text Only | Print | Product List | Glossary On
Versions: 1 2 3 4 5 6 7 8 9 10 11 12 13 14 15 16 17 18
000
FTUS42 KMLB 272337
TAFTIX
TAF
KTIX 272337Z 2800/2824 VRB04KT P6SM OVC100
     FM280300 VRB03KT P6SM -RA FEW020 OVC080
     FM281400 07006KT P6SM VCSH SCT025 OVC040
     FM281800 09009KT P6SM VCTS SCT025CB BKN040
      AMD NOT SKED 2802/2812=

USA.gov is the U.S. government's official web portal to all federal, state and local government web resources and services.